Time;durP1;ratioP1;P1;durP2;ratioP2;P2;SDS_P1;SDS_P2;PMS_P1;PMS_P2;Temp;Humidity;BMP_temperature;BMP_pressure;BME280_temperature;BME280_humidity;BME280_pressure;Samples;Min_cycle;Max_cycle;Signal;HPM_P1;HPM_P2
2022/03/01 00:02:17;;;;;;;14.80;5.00;;;;;;;0.46;76.41;97782.81;5046224;28;20049;-59
2022/03/01 00:04:44;;;;;;;18.10;6.78;;;;;;;0.51;76.94;97785.50;5046328;28;20053;-59
2022/03/01 00:07:11;;;;;;;22.55;7.28;;;;;;;0.60;76.62;97781.03;5044942;28;20068;-61
2022/03/01 00:09:37;;;;;;;19.55;7.88;;;;;;;0.63;76.40;97783.19;5046123;28;20053;-59
2022/03/01 00:12:05;;;;;;;18.45;6.68;;;;;;;0.71;76.59;97779.81;5086323;28;20083;-59
2022/03/01 00:14:31;;;;;;;17.25;6.65;;;;;;;0.64;76.58;97776.63;5084942;28;20048;-59
2022/03/01 00:16:58;;;;;;;25.77;9.90;;;;;;;0.73;76.58;97769.44;5086926;28;20048;-60
2022/03/01 00:19:27;;;;;;;22.05;10.02;;;;;;;0.78;75.81;97769.38;5087184;28;20044;-59
2022/03/01 00:21:54;;;;;;;10.75;5.63;;;;;;;0.88;75.50;97769.28;5087022;28;20608;-58
2022/03/01 00:24:21;;;;;;;13.57;6.25;;;;;;;0.86;74.93;97767.94;5086269;28;20052;-58
2022/03/01 00:26:48;;;;;;;14.23;5.35;;;;;;;0.83;75.97;97761.16;5086229;28;20509;-59
2022/03/01 00:29:15;;;;;;;13.15;5.32;;;;;;;0.85;74.99;97755.41;5086261;28;20047;-58
2022/03/01 00:31:42;;;;;;;15.07;5.95;;;;;;;0.90;76.10;97750.69;5086327;28;20562;-58
2022/03/01 00:34:09;;;;;;;16.40;6.55;;;;;;;0.57;75.26;97697.13;5084750;28;20048;-59
2022/03/01 00:36:37;;;;;;;23.65;10.57;;;;;;;1.05;75.19;97747.78;5085944;28;20052;-59
2022/03/01 00:39:05;;;;;;;14.57;7.20;;;;;;;1.09;74.18;97748.81;5084774;28;20059;-58
2022/03/01 00:41:32;;;;;;;16.35;6.82;;;;;;;1.16;73.88;97738.38;5086285;28;20321;-59
2022/03/01 00:43:59;;;;;;;15.68;6.68;;;;;;;1.18;74.18;97747.09;5085924;28;20048;-59
2022/03/01 00:46:26;;;;;;;13.93;5.00;;;;;;;0.96;74.97;97755.00;5085770;28;20136;-61
2022/03/01 00:48:54;;;;;;;11.48;5.38;;;;;;;0.91;74.50;97740.59;5086320;28;20052;-59
2022/03/01 00:51:21;;;;;;;13.90;5.32;;;;;;;0.94;74.47;97745.47;5086244;28;20544;-59
2022/03/01 00:53:48;;;;;;;54.70;17.95;;;;;;;0.94;75.18;97735.38;5085728;28;20054;-62
2022/03/01 00:56:15;;;;;;;21.75;7.57;;;;;;;0.93;75.32;97741.94;5084019;28;20052;-59
2022/03/01 00:58:42;;;;;;;22.90;8.70;;;;;;;0.92;75.74;97737.59;5085965;28;20135;-60
2022/03/01 01:01:09;;;;;;;18.15;5.88;;;;;;;0.37;76.25;97681.00;5085414;28;20155;-58
2022/03/01 01:03:37;;;;;;;32.25;12.60;;;;;;;0.89;76.69;97732.72;5085401;28;20051;-60
2022/03/01 01:06:04;;;;;;;21.10;9.30;;;;;;;0.67;76.44;97691.56;5085107;28;20074;-61
2022/03/01 01:08:31;;;;;;;19.23;8.88;;;;;;;1.01;75.37;97724.91;5085283;28;20048;-61
2022/03/01 01:10:57;;;;;;;15.55;6.53;;;;;;;0.78;75.96;97698.50;5072815;28;20135;-59
2022/03/01 01:13:24;;;;;;;17.27;6.55;;;;;;;0.92;76.18;97726.69;5064185;28;20048;-60
2022/03/01 01:15:51;;;;;;;41.95;16.15;;;;;;;0.83;76.91;97722.97;5065762;28;20147;-58
2022/03/01 01:18:18;;;;;;;26.10;10.00;;;;;;;0.80;75.63;97690.84;5065978;28;20083;-59
2022/03/01 01:20:45;;;;;;;10.30;4.72;;;;;;;0.94;74.43;97719.03;5065747;28;20135;-59
2022/03/01 01:23:12;;;;;;;9.88;4.25;;;;;;;1.07;75.02;97712.88;5064977;28;20069;-60
2022/03/01 01:25:39;;;;;;;10.98;4.43;;;;;;;0.77;74.06;97653.28;5064915;28;20053;-60
2022/03/01 01:28:06;;;;;;;10.20;4.65;;;;;;;1.12;75.08;97710.03;5063810;28;20062;-59
2022/03/01 01:30:34;;;;;;;14.40;6.13;;;;;;;1.07;75.91;97709.31;5065066;28;20145;-59
2022/03/01 01:33:02;;;;;;;12.23;4.20;;;;;;;0.31;75.47;97622.25;5065025;28;20732;-59
2022/03/01 01:35:30;;;;;;;12.35;5.15;;;;;;;1.05;75.95;97704.16;5065595;28;20132;-60
2022/03/01 01:37:58;;;;;;;13.88;6.03;;;;;;;1.11;75.72;97713.88;5065095;28;20430;-60
2022/03/01 01:40:27;;;;;;;19.15;8.93;;;;;;;0.89;76.12;97666.47;5063463;28;20399;-59
2022/03/01 01:42:56;;;;;;;11.50;4.88;;;;;;;1.14;74.74;97707.03;5064560;28;20544;-59
2022/03/01 01:45:24;;;;;;;9.48;4.22;;;;;;;1.19;73.85;97701.50;5064751;28;20534;-58
2022/03/01 01:47:53;;;;;;;10.23;4.60;;;;;;;1.05;74.54;97704.16;5063381;28;20087;-59
2022/03/01 01:50:20;;;;;;;9.02;4.07;;;;;;;1.06;75.02;97700.31;5064686;28;20071;-58
2022/03/01 01:52:49;;;;;;;8.40;4.15;;;;;;;1.17;74.04;97699.06;5063660;28;20039;-59
2022/03/01 01:55:17;;;;;;;14.88;7.00;;;;;;;1.04;76.54;97697.06;5064994;28;20133;-60
2022/03/01 01:57:44;;;;;;;49.92;21.38;;;;;;;0.83;76.79;97695.72;5064198;28;20053;-58
2022/03/01 02:00:12;;;;;;;19.48;8.65;;;;;;;0.72;76.19;97672.41;5064476;28;20057;-59
2022/03/01 02:02:40;;;;;;;19.20;8.02;;;;;;;0.92;75.87;97677.59;5064307;28;20052;-59
2022/03/01 02:05:08;;;;;;;24.52;9.50;;;;;;;1.15;76.01;97692.28;5063974;28;20110;-60
2022/03/01 02:07:35;;;;;;;14.82;5.00;;;;;;;0.93;75.11;97695.56;5063780;28;20056;-59
2022/03/01 02:10:04;;;;;;;13.30;6.57;;;;;;;1.20;74.45;97690.28;5067480;28;20263;-59
2022/03/01 02:12:31;;;;;;;4.50;2.35;;;;;;;0.84;74.69;97680.97;5082802;28;20087;-60
2022/03/01 02:14:57;;;;;;;6.97;2.90;;;;;;;0.79;75.46;97678.31;5084095;28;20054;-60
2022/03/01 02:17:28;;;;;;;9.35;3.50;;;;;;;0.89;74.84;97669.19;5084439;28;20109;-59
2022/03/01 02:19:55;;;;;;;11.73;4.00;;;;;;;0.85;75.38;97679.88;5084647;28;20582;-59
2022/03/01 02:22:21;;;;;;;13.27;5.10;;;;;;;0.85;75.68;97665.44;5082545;28;20048;-58
2022/03/01 02:24:48;;;;;;;5.35;1.85;;;;;;;0.82;75.58;97677.72;5084302;28;20048;-59
2022/03/01 02:27:15;;;;;;;12.73;4.32;;;;;;;0.88;75.42;97671.13;5082597;28;20070;-58
2022/03/01 02:29:41;;;;;;;12.27;4.93;;;;;;;0.55;75.14;97616.75;5084079;28;20127;-59
2022/03/01 02:32:09;;;;;;;8.27;3.08;;;;;;;0.81;74.71;97657.03;5084163;28;20064;-58
2022/03/01 02:34:36;;;;;;;7.20;3.40;;;;;;;0.87;74.79;97669.47;5083901;28;20147;-59
2022/03/01 02:37:03;;;;;;;7.57;3.85;;;;;;;0.94;74.44;97664.50;5083807;28;20056;-59
2022/03/01 02:39:33;;;;;;;11.05;3.78;;;;;;;0.86;74.71;97662.41;5084087;28;20609;-59
2022/03/01 02:42:00;;;;;;;7.00;3.15;;;;;;;0.43;75.41;97594.59;5083829;28;20506;-59
2022/03/01 02:44:26;;;;;;;5.15;2.67;;;;;;;0.82;75.43;97666.81;5083962;28;20226;-58
2022/03/01 02:46:53;;;;;;;8.30;3.22;;;;;;;0.16;75.17;97553.50;5082313;28;20056;-59
2022/03/01 02:49:20;;;;;;;6.85;2.75;;;;;;;0.84;75.78;97661.88;5082769;28;20525;-58
2022/03/01 02:51:47;;;;;;;6.32;3.20;;;;;;;0.80;75.29;97660.88;5083641;28;20139;-59
2022/03/01 02:54:14;;;;;;;6.93;3.83;;;;;;;0.35;75.11;97574.22;5082074;28;20048;-58
2022/03/01 02:56:41;;;;;;;6.93;3.60;;;;;;;1.04;74.62;97647.97;5083933;28;20079;-60
2022/03/01 02:59:08;;;;;;;7.63;3.38;;;;;;;1.09;74.47;97667.00;5084137;28;20569;-58
2022/03/01 03:01:34;;;;;;;8.15;3.35;;;;;;;1.08;74.22;97665.38;5083440;28;20047;-59
2022/03/01 03:04:02;;;;;;;8.38;3.78;;;;;;;1.01;74.89;97656.72;5083761;28;20117;-59
2022/03/01 03:06:28;;;;;;;10.52;3.58;;;;;;;0.89;74.82;97656.38;5083368;28;20148;-60
2022/03/01 03:08:56;;;;;;;10.15;3.55;;;;;;;0.95;75.08;97654.41;5083758;28;20163;-58
2022/03/01 03:11:23;;;;;;;8.55;4.15;;;;;;;1.08;74.85;97659.91;5068024;28;20052;-58
2022/03/01 03:13:50;;;;;;;17.67;4.90;;;;;;;0.75;74.66;97600.94;5063461;28;20056;-59
2022/03/01 03:16:16;;;;;;;5.50;2.65;;;;;;;0.87;75.04;97658.56;5061471;28;20095;-59
2022/03/01 03:18:44;;;;;;;7.45;3.78;;;;;;;0.88;75.40;97652.03;5063495;28;20090;-61
2022/03/01 03:21:11;;;;;;;17.25;5.15;;;;;;;0.94;75.32;97659.03;5063231;28;20144;-60
2022/03/01 03:23:38;;;;;;;12.05;4.40;;;;;;;0.84;75.32;97659.16;5065549;28;20637;-59
2022/03/01 03:26:05;;;;;;;10.27;3.90;;;;;;;1.02;75.32;97652.91;5067604;28;20292;-59
2022/03/01 03:28:32;;;;;;;11.00;4.00;;;;;;;0.62;75.71;97590.75;5067382;28;20055;-60
2022/03/01 03:30:59;;;;;;;7.30;3.90;;;;;;;0.85;76.27;97671.72;5067279;28;20433;-60
2022/03/01 03:33:26;;;;;;;8.30;3.92;;;;;;;1.01;75.99;97664.91;5066771;28;20106;-58
2022/03/01 03:35:54;;;;;;;16.02;5.75;;;;;;;0.56;76.32;97586.50;5067222;28;20505;-56
2022/03/01 03:38:21;;;;;;;15.80;4.93;;;;;;;0.34;76.81;97569.88;5067178;28;20056;-59
2022/03/01 03:40:51;;;;;;;17.33;5.47;;;;;;;0.39;77.49;97607.97;5066925;28;20131;-59
2022/03/01 03:43:19;;;;;;;11.70;3.90;;;;;;;0.63;77.93;97662.44;5067077;28;20076;-58
2022/03/01 03:45:45;;;;;;;7.95;3.42;;;;;;;0.56;77.77;97641.00;5067022;28;20057;-59
2022/03/01 03:48:12;;;;;;;18.00;5.10;;;;;;;0.71;78.00;97635.34;5067612;28;20071;-59
2022/03/01 03:50:39;;;;;;;16.17;5.15;;;;;;;0.18;78.83;97573.09;5067175;28;20139;-61
2022/03/01 03:53:06;;;;;;;6.03;3.13;;;;;;;-0.02;77.58;97520.47;5066980;28;20059;-59
2022/03/01 03:55:33;;;;;;;20.60;6.95;;;;;;;0.53;78.50;97647.03;5067030;28;20566;-59
2022/03/01 03:58:00;;;;;;;7.32;3.28;;;;;;;0.08;78.20;97578.66;5066646;28;20546;-61
2022/03/01 04:00:26;;;;;;;36.50;7.60;;;;;;;0.42;78.84;97636.53;5066256;28;20505;-58
2022/03/01 04:02:53;;;;;;;12.95;5.20;;;;;;;0.36;79.48;97608.56;5064894;28;20049;-57
2022/03/01 04:05:21;;;;;;;19.70;6.60;;;;;;;0.48;79.55;97633.47;5066495;28;20052;-56
2022/03/01 04:07:48;;;;;;;7.82;3.30;;;;;;;0.17;80.15;97613.13;5066171;28;20414;-56
2022/03/01 04:10:16;;;;;;;12.95;6.53;;;;;;;0.34;81.06;97638.00;5070948;28;20167;-57
2022/03/01 04:12:43;;;;;;;14.93;5.80;;;;;;;0.28;80.10;97641.88;5087036;28;20146;-58
2022/03/01 04:15:11;;;;;;;9.38;4.68;;;;;;;0.41;79.59;97632.19;5086722;28;20052;-59
2022/03/01 04:17:39;;;;;;;12.35;5.70;;;;;;;0.36;79.58;97622.19;5086171;28;20131;-59
2022/03/01 04:20:07;;;;;;;10.40;5.03;;;;;;;0.51;79.48;97632.88;5086899;28;20055;-59
2022/03/01 04:22:34;;;;;;;12.15;4.97;;;;;;;0.29;80.89;97640.78;5086272;28;20496;-60
2022/03/01 04:25:04;;;;;;;13.30;5.63;;;;;;;0.28;80.85;97639.16;5086101;28;20056;-58
2022/03/01 04:27:31;;;;;;;9.60;4.63;;;;;;;-0.19;81.17;97562.91;5086568;28;20143;-59
2022/03/01 04:29:58;;;;;;;16.70;7.15;;;;;;;-0.13;81.34;97556.31;5086418;28;20055;-60
2022/03/01 04:32:25;;;;;;;8.90;4.60;;;;;;;0.31;81.56;97641.31;5084560;28;20078;-55
2022/03/01 04:34:51;;;;;;;14.98;6.25;;;;;;;0.43;81.29;97636.25;5085838;28;20471;-56
2022/03/01 04:37:18;;;;;;;14.07;6.30;;;;;;;0.33;81.07;97639.09;5085230;28;20140;-61
2022/03/01 04:39:45;;;;;;;12.20;5.68;;;;;;;0.39;80.28;97643.38;5084641;28;20044;-59
2022/03/01 04:42:16;;;;;;;12.88;4.10;;;;;;;0.29;78.41;97646.22;5086286;28;20043;-58
2022/03/01 04:44:43;;;;;;;9.50;5.32;;;;;;;0.15;79.36;97622.69;5084566;28;20056;-56
2022/03/01 04:47:11;;;;;;;12.73;5.10;;;;;;;-0.26;79.85;97595.91;5085393;28;20113;-59
2022/03/01 04:49:37;;;;;;;8.48;4.93;;;;;;;-0.30;79.50;97575.78;5085804;28;20139;-56
2022/03/01 04:52:04;;;;;;;12.73;5.63;;;;;;;0.00;80.17;97599.19;5085761;28;20487;-57
2022/03/01 04:54:32;;;;;;;7.97;3.53;;;;;;;0.36;79.32;97654.06;5086563;28;20086;-56
2022/03/01 04:56:58;;;;;;;12.48;5.80;;;;;;;-0.33;79.39;97578.28;5085562;28;20087;-58
2022/03/01 04:59:25;;;;;;;13.63;5.43;;;;;;;0.39;79.13;97657.00;5085475;28;20131;-59
2022/03/01 05:01:52;;;;;;;9.85;4.57;;;;;;;0.32;80.26;97653.81;5084073;28;20048;-57
2022/03/01 05:04:19;;;;;;;8.80;4.15;;;;;;;0.35;79.38;97653.22;5083917;28;20112;-61
2022/03/01 05:06:46;;;;;;;8.57;3.67;;;;;;;-0.15;78.51;97563.94;5085334;28;20442;-58
2022/03/01 05:09:13;;;;;;;15.23;5.38;;;;;;;0.30;79.08;97647.03;5085570;28;20076;-56
2022/03/01 05:11:40;;;;;;;5.18;2.30;;;;;;;-0.27;79.88;97577.16;5070059;28;20048;-57
2022/03/01 05:14:06;;;;;;;15.43;6.50;;;;;;;0.37;80.89;97659.22;5065536;28;20151;-59
2022/03/01 05:16:34;;;;;;;17.13;7.47;;;;;;;0.39;81.13;97657.00;5063384;28;20143;-58
2022/03/01 05:19:01;;;;;;;12.38;6.10;;;;;;;0.30;80.58;97661.47;5063447;28;20499;-57
2022/03/01 05:21:29;;;;;;;14.10;6.22;;;;;;;0.38;79.84;97671.72;5064938;28;20053;-57
2022/03/01 05:23:56;;;;;;;15.50;6.70;;;;;;;0.02;80.38;97618.75;5065093;28;20131;-57
2022/03/01 05:26:24;;;;;;;16.73;7.50;;;;;;;0.38;80.63;97666.28;5064664;28;20554;-57
2022/03/01 05:28:50;;;;;;;16.33;7.65;;;;;;;-2.90;81.95;97168.84;5064932;28;20052;-57
2022/03/01 05:31:23;;;;;;;12.50;5.85;;;;;;;0.30;82.60;97639.66;5065330;28;20482;-57
2022/03/01 05:33:50;;;;;;;16.15;6.93;;;;;;;0.63;82.04;97687.81;5064839;28;20055;-60
2022/03/01 05:36:17;;;;;;;14.13;6.35;;;;;;;0.38;82.68;97692.72;5065136;28;20136;-57
2022/03/01 05:38:44;;;;;;;18.02;6.47;;;;;;;0.46;82.33;97698.34;5064583;28;20060;-59
2022/03/01 05:41:11;;;;;;;17.73;7.45;;;;;;;-0.41;82.79;97549.00;5064861;28;20153;-57
2022/03/01 05:43:40;;;;;;;15.30;6.47;;;;;;;0.24;83.08;97631.88;5064887;28;20466;-58
2022/03/01 05:46:07;;;;;;;13.18;5.60;;;;;;;-0.17;83.93;97579.75;5063951;28;20053;-58
2022/03/01 05:48:34;;;;;;;10.57;4.70;;;;;;;0.42;84.36;97669.22;5064023;28;20080;-58
2022/03/01 05:51:02;;;;;;;12.05;5.50;;;;;;;0.54;84.45;97703.16;5065311;28;20132;-57
2022/03/01 05:53:29;;;;;;;7.00;5.25;;;;;;;0.50;83.78;97699.41;5064254;28;20131;-58
2022/03/01 05:55:56;;;;;;;13.65;6.78;;;;;;;0.54;83.16;97714.06;5061616;28;20044;-57
2022/03/01 05:58:22;;;;;;;11.55;4.32;;;;;;;0.32;84.56;97708.31;5062629;28;20058;-57
2022/03/01 06:00:49;;;;;;;8.43;3.67;;;;;;;-0.10;82.98;97659.19;5064501;28;20080;-55
2022/03/01 06:03:16;;;;;;;10.07;5.10;;;;;;;0.32;82.97;97721.91;5063625;28;20291;-59
2022/03/01 06:05:43;;;;;;;13.52;5.40;;;;;;;0.52;80.16;97715.44;5064305;28;20076;-57
2022/03/01 06:08:09;;;;;;;7.53;3.63;;;;;;;0.36;80.53;97716.72;5062668;28;20064;-56
2022/03/01 06:10:36;;;;;;;6.68;3.45;;;;;;;-0.04;81.66;97647.13;5069693;28;20538;-57
2022/03/01 06:13:04;;;;;;;12.60;6.45;;;;;;;0.26;82.72;97701.28;5082947;28;20047;-54
2022/03/01 06:15:31;;;;;;;11.68;4.60;;;;;;;0.26;82.53;97717.63;5082692;28;20370;-56
2022/03/01 06:17:57;;;;;;;13.80;4.80;;;;;;;0.35;81.51;97726.78;5084250;28;20512;-56
2022/03/01 06:20:24;;;;;;;13.50;5.53;;;;;;;-2.54;80.23;97254.22;5084495;28;20044;-56
2022/03/01 06:22:51;;;;;;;13.30;5.78;;;;;;;-0.14;79.65;97647.22;5083908;28;20597;-55
2022/03/01 06:25:21;;;;;;;14.40;4.75;;;;;;;0.48;79.49;97742.47;5084091;28;20048;-55
2022/03/01 06:27:48;;;;;;;11.95;7.07;;;;;;;0.52;78.84;97735.31;5082608;28;20580;-56
2022/03/01 06:30:15;;;;;;;12.70;5.68;;;;;;;0.22;75.75;97672.19;5082387;28;20047;-55
2022/03/01 06:32:42;;;;;;;14.35;5.38;;;;;;;0.73;74.94;97739.44;5082372;28;20052;-55
2022/03/01 06:35:10;;;;;;;12.52;5.38;;;;;;;0.56;74.35;97716.50;5082640;28;20054;-56
2022/03/01 06:37:42;;;;;;;12.30;5.57;;;;;;;0.86;74.65;97798.75;5082578;28;20131;-56
2022/03/01 06:40:12;;;;;;;15.38;6.43;;;;;;;0.67;72.78;97680.66;5083966;28;20508;-55
2022/03/01 06:42:39;;;;;;;12.65;5.68;;;;;;;0.83;74.76;97714.81;5083848;28;20616;-54
2022/03/01 06:45:07;;;;;;;10.73;5.28;;;;;;;0.51;73.11;97627.44;5084246;28;20060;-58
2022/03/01 06:47:34;;;;;;;8.27;4.03;;;;;;;0.07;73.10;97642.38;5071545;28;20052;-59
2022/03/01 06:50:02;;;;;;;10.23;4.97;;;;;;;1.15;70.86;97736.75;5058880;28;20052;-56
2022/03/01 06:52:30;;;;;;;13.25;4.47;;;;;;;0.86;70.49;97703.31;5062028;28;20071;-54
2022/03/01 06:54:58;;;;;;;8.05;3.15;;;;;;;0.12;68.54;97536.94;5061874;28;20075;-56
2022/03/01 06:57:24;;;;;;;7.82;3.40;;;;;;;0.22;69.39;97596.75;5062529;28;20059;-57
2022/03/01 06:59:53;;;;;;;10.63;4.68;;;;;;;0.60;68.76;97622.94;5063457;28;20525;-57
2022/03/01 07:02:21;;;;;;;15.20;5.50;;;;;;;1.16;68.71;97721.19;5062855;28;20493;-57
2022/03/01 07:04:48;;;;;;;10.18;4.95;;;;;;;1.47;67.35;97734.09;5061653;28;20053;-56
2022/03/01 07:07:15;;;;;;;12.07;5.18;;;;;;;1.40;67.00;97733.69;5062352;28;20056;-58
2022/03/01 07:09:42;;;;;;;10.65;3.90;;;;;;;1.18;66.36;97703.44;5062927;28;20056;-58
2022/03/01 07:12:09;;;;;;;8.35;4.25;;;;;;;1.32;67.50;97742.53;5061211;28;20109;-57
2022/03/01 07:14:36;;;;;;;9.77;3.95;;;;;;;0.96;69.19;97744.09;5061871;28;20076;-59
2022/03/01 07:17:03;;;;;;;13.15;5.43;;;;;;;0.91;69.49;97697.81;5063097;28;20059;-58
2022/03/01 07:19:30;;;;;;;12.88;6.80;;;;;;;1.23;69.44;97722.44;5061707;28;20056;-57
2022/03/01 07:21:56;;;;;;;13.93;6.78;;;;;;;1.56;69.64;97745.19;5063098;28;20056;-58
2022/03/01 07:24:25;;;;;;;14.73;5.93;;;;;;;1.88;67.59;97738.97;5061891;28;20071;-57
2022/03/01 07:26:52;;;;;;;11.38;5.55;;;;;;;1.73;67.07;97676.38;5061169;28;20056;-56
2022/03/01 07:29:19;;;;;;;11.77;5.90;;;;;;;2.19;65.67;97756.47;5063015;28;20052;-60
2022/03/01 07:31:45;;;;;;;18.73;9.57;;;;;;;2.06;65.56;97725.25;5061894;28;20063;-58
2022/03/01 07:34:12;;;;;;;12.68;5.63;;;;;;;2.20;65.26;97741.69;5062779;28;20048;-58
2022/03/01 07:36:39;;;;;;;9.50;5.22;;;;;;;2.38;64.42;97749.84;5061651;28;20059;-61
2022/03/01 07:39:06;;;;;;;12.80;5.80;;;;;;;1.36;63.29;97623.47;5061098;28;20068;-60
2022/03/01 07:41:33;;;;;;;11.15;5.60;;;;;;;2.48;63.89;97744.19;5062896;28;20048;-57
2022/03/01 07:44:00;;;;;;;10.90;5.63;;;;;;;2.51;63.77;97721.69;5042653;28;20055;-58
2022/03/01 07:46:27;;;;;;;9.98;5.38;;;;;;;2.44;63.05;97704.06;5042588;28;20059;-57
2022/03/01 07:48:53;;;;;;;16.50;6.90;;;;;;;2.65;63.41;97743.59;5042071;28;20064;-60
2022/03/01 07:51:20;;;;;;;13.63;5.20;;;;;;;2.62;63.51;97749.69;5042673;28;20063;-58
2022/03/01 07:53:49;;;;;;;14.05;5.78;;;;;;;2.14;61.80;97682.78;5042430;28;20041;-56
2022/03/01 07:56:20;;;;;;;11.98;5.32;;;;;;;1.69;61.41;97572.44;5042719;28;20048;-58
2022/03/01 07:58:50;;;;;;;12.10;5.85;;;;;;;2.62;61.55;97736.00;5041025;28;20056;-56
2022/03/01 08:01:16;;;;;;;8.82;4.50;;;;;;;0.23;59.63;97315.09;5043067;28;20408;-56
2022/03/01 08:03:44;;;;;;;10.27;5.53;;;;;;;2.51;61.09;97677.16;5040961;28;20131;-58
2022/03/01 08:06:10;;;;;;;9.23;3.75;;;;;;;2.96;59.90;97750.09;5041248;28;20414;-58
2022/03/01 08:08:37;;;;;;;14.00;5.60;;;;;;;3.19;59.37;97724.47;5042804;28;20570;-58
2022/03/01 08:11:07;;;;;;;12.85;4.88;;;;;;;3.01;59.64;97726.19;5048481;28;20055;-61
2022/03/01 08:13:41;;;;;;;14.50;5.40;;;;;;;3.81;58.89;97756.44;5063411;28;20092;-59
2022/03/01 08:16:08;;;;;;;8.73;5.28;;;;;;;3.93;57.92;97759.47;5065345;28;20095;-56
2022/03/01 08:18:35;;;;;;;13.25;5.72;;;;;;;3.71;57.54;97745.75;5065681;28;20095;-59
2022/03/01 08:21:03;;;;;;;11.80;5.30;;;;;;;3.30;57.50;97745.03;5065978;28;20045;-56
2022/03/01 08:23:30;;;;;;;10.43;5.45;;;;;;;2.89;57.62;97621.13;5063657;28;20138;-58
2022/03/01 08:25:57;;;;;;;9.07;3.58;;;;;;;2.88;59.17;97748.06;5065606;28;20056;-58
2022/03/01 08:28:25;;;;;;;11.70;5.22;;;;;;;2.81;59.69;97714.84;5065224;28;20058;-58
2022/03/01 08:30:54;;;;;;;12.18;5.90;;;;;;;3.26;58.98;97743.22;5065880;28;20052;-57
2022/03/01 08:33:21;;;;;;;8.02;4.53;;;;;;;2.90;60.13;97734.91;5066090;28;20053;-58
2022/03/01 08:35:48;;;;;;;15.85;5.45;;;;;;;2.58;61.28;97732.25;5065977;28;20063;-56
2022/03/01 08:38:15;;;;;;;11.93;5.85;;;;;;;2.80;61.83;97741.38;5065399;28;20052;-55
2022/03/01 08:40:42;;;;;;;12.82;5.70;;;;;;;3.02;62.40;97759.81;5065863;28;20465;-58
2022/03/01 08:43:15;;;;;;;9.55;5.43;;;;;;;2.92;59.74;97689.69;5050681;28;20060;-57
2022/03/01 08:45:42;;;;;;;5.95;3.85;;;;;;;2.75;59.84;97710.59;5045729;28;20567;-57
2022/03/01 08:48:09;;;;;;;12.15;5.65;;;;;;;3.31;59.69;97751.28;5044885;28;20148;-59
2022/03/01 08:50:37;;;;;;;10.45;5.00;;;;;;;2.96;59.00;97673.47;5043892;28;20049;-58
2022/03/01 08:53:15;;;;;;;13.88;5.53;;;;;;;3.23;60.38;97754.75;5044985;28;20348;-57
2022/03/01 08:55:43;;;;;;;8.90;5.43;;;;;;;3.51;58.38;97745.38;5045117;28;20442;-55
2022/03/01 08:58:10;;;;;;;12.23;4.78;;;;;;;3.29;59.00;97746.13;5045078;28;20045;-57
2022/03/01 09:00:37;;;;;;;14.40;6.57;;;;;;;2.97;59.48;97741.59;5045183;28;20520;-56
2022/03/01 09:03:05;;;;;;;11.40;5.63;;;;;;;1.94;59.88;97601.19;5044780;28;20857;-55
2022/03/01 09:05:33;;;;;;;11.13;5.88;;;;;;;2.45;59.86;97683.84;5044511;28;20060;-56
2022/03/01 09:08:00;;;;;;;11.25;6.07;;;;;;;2.90;60.48;97760.34;5044519;28;20122;-56
2022/03/01 09:10:28;;;;;;;12.57;6.30;;;;;;;1.94;59.92;97588.34;5043680;28;20053;-54
2022/03/01 09:12:56;;;;;;;12.40;6.28;;;;;;;2.77;61.38;97768.53;5063693;28;20110;-57
2022/03/01 09:15:30;;;;;;;4.78;2.20;;;;;;;1.82;61.84;97708.16;5065008;28;20056;-56
2022/03/01 09:18:03;;;;;;;8.65;3.05;;;;;;;1.76;63.40;97703.09;5064277;28;20156;-57
2022/03/01 09:20:30;;;;;;;12.75;6.18;;;;;;;1.84;64.04;97710.59;5064200;28;20056;-57
2022/03/01 09:22:58;;;;;;;10.57;5.00;;;;;;;2.12;63.62;97777.91;5064808;28;20548;-57
2022/03/01 09:25:29;;;;;;;8.27;5.47;;;;;;;1.78;65.11;97739.94;5064593;28;20095;-59
2022/03/01 09:27:55;;;;;;;11.88;4.63;;;;;;;2.06;65.46;97757.22;5063711;28;20094;-58
2022/03/01 09:30:22;;;;;;;11.35;5.20;;;;;;;1.31;64.67;97672.66;5064889;28;20055;-60
2022/03/01 09:32:49;;;;;;;12.95;6.28;;;;;;;1.92;66.62;97778.22;5064068;28;20044;-59
2022/03/01 09:35:17;;;;;;;9.55;4.18;;;;;;;2.14;65.71;97771.03;5060273;28;20178;-56
2022/03/01 09:37:44;;;;;;;10.15;4.55;;;;;;;2.19;65.35;97757.28;5061233;28;20045;-57
2022/03/01 09:40:12;;;;;;;9.20;5.28;;;;;;;1.93;67.69;97780.66;5063884;28;20051;-55
2022/03/01 09:42:39;;;;;;;16.00;6.68;;;;;;;1.53;67.99;97694.69;5061184;28;20059;-59
2022/03/01 09:45:08;;;;;;;18.23;6.60;;;;;;;2.05;67.87;97766.53;5063245;28;20132;-59
2022/03/01 09:47:35;;;;;;;12.88;6.15;;;;;;;2.62;66.51;97766.09;5063157;28;20059;-56
2022/03/01 09:50:03;;;;;;;15.40;7.13;;;;;;;2.42;66.93;97761.00;5063729;28;20052;-58
2022/03/01 09:52:30;;;;;;;11.35;6.38;;;;;;;2.92;64.06;97749.09;5062288;28;20062;-54
2022/03/01 09:54:57;;;;;;;14.90;7.10;;;;;;;3.28;63.44;97763.66;5060820;28;20508;-56
2022/03/01 09:57:24;;;;;;;10.82;4.53;;;;;;;3.11;64.26;97760.75;5062143;28;20075;-55
2022/03/01 09:59:50;;;;;;;12.73;6.88;;;;;;;2.30;63.77;97643.13;5063600;28;20044;-60
2022/03/01 10:02:17;;;;;;;13.77;6.20;;;;;;;3.59;62.34;97759.16;5063295;28;20048;-57
2022/03/01 10:04:57;;;;;;;14.95;6.40;;;;;;;3.88;60.70;97762.31;5063853;28;20048;-56
2022/03/01 10:07:27;;;;;;;13.27;6.88;;;;;;;3.65;61.85;97757.13;5062734;28;20060;-57
2022/03/01 10:10:02;;;;;;;14.27;6.18;;;;;;;2.92;63.21;97754.56;5043796;28;20088;-60
2022/03/01 10:12:29;;;;;;;15.88;6.20;;;;;;;3.62;62.33;97757.75;5068847;28;20054;-55
2022/03/01 10:15:29;;;;;;;14.90;6.53;;;;;;;3.26;63.16;97754.16;5083992;28;20070;-56
2022/03/01 10:17:56;;;;;;;12.80;7.07;;;;;;;3.96;61.16;97742.41;5081987;28;20494;-57
2022/03/01 10:20:23;;;;;;;13.88;6.45;;;;;;;3.82;59.88;97681.38;5084353;28;20048;-57
2022/03/01 10:22:54;;;;;;;11.35;6.38;;;;;;;3.73;59.75;97742.69;5083777;28;20052;-56
2022/03/01 10:25:23;;;;;;;15.98;7.55;;;;;;;3.76;59.54;97726.41;5082139;28;20055;-57
2022/03/01 10:27:52;;;;;;;11.70;5.75;;;;;;;2.48;61.52;97716.03;5082125;28;20060;-56
2022/03/01 10:30:31;;;;;;;10.43;5.30;;;;;;;2.96;61.16;97717.25;4886038;28;5002078;-56
2022/03/01 10:33:05;;;;;;;14.43;6.35;;;;;;;3.10;62.71;97737.22;5062534;28;20152;-56
2022/03/01 10:35:33;;;;;;;14.15;6.93;;;;;;;3.51;62.24;97732.50;5063109;28;20064;-59
2022/03/01 10:38:02;;;;;;;9.15;4.07;;;;;;;2.83;61.58;97685.25;5063162;28;20064;-55
2022/03/01 10:40:29;;;;;;;21.77;9.13;;;;;;;3.55;61.33;97681.47;5062355;28;20051;-56
2022/03/01 10:42:59;;;;;;;14.90;7.50;;;;;;;4.28;58.88;97711.97;5049650;28;20121;-57
2022/03/01 10:45:48;;;;;;;13.15;6.82;;;;;;;3.67;60.28;97684.47;5043161;28;20430;-56
2022/03/01 10:48:42;;;;;;;22.48;9.45;;;;;;;4.42;57.80;97707.22;5041555;28;20511;-55
2022/03/01 10:51:09;;;;;;;;;;;;;;;4.22;58.23;97691.28;5042342;28;20543;-55
2022/03/01 10:53:45;;;;;;;4.70;2.85;;;;;;;3.52;59.13;97687.56;5042790;28;19955;-56
2022/03/01 10:56:13;;;;;;;9.48;5.03;;;;;;;4.00;59.87;97683.09;5041358;28;20135;-55
2022/03/01 10:58:42;;;;;;;13.55;6.28;;;;;;;3.67;57.76;97547.50;5042133;28;20049;-57
2022/03/01 11:01:09;;;;;;;24.50;8.20;;;;;;;4.56;57.85;97680.50;5043524;28;20044;-55
2022/03/01 11:03:37;;;;;;;11.13;3.97;;;;;;;4.01;58.16;97679.25;5041697;28;20136;-55
2022/03/01 11:06:06;;;;;;;13.02;6.30;;;;;;;4.65;58.20;97673.13;5042925;28;20091;-60
2022/03/01 11:08:35;;;;;;;9.70;5.53;;;;;;;4.19;57.58;97612.41;5042802;28;20594;-57
2022/03/01 11:11:05;;;;;;;15.70;6.10;;;;;;;4.72;57.71;97658.13;5047824;28;20490;-54
2022/03/01 11:13:35;;;;;;;7.35;4.20;;;;;;;4.34;57.00;97595.56;5071144;28;20052;-54
2022/03/01 11:16:08;;;;;;;7.55;4.25;;;;;;;4.47;58.35;97676.91;5063132;28;20099;-56
2022/03/01 11:19:03;;;;;;;13.10;5.65;;;;;;;4.82;57.36;97663.34;5042712;28;20053;-58
2022/03/01 11:21:33;;;;;;;7.97;3.28;;;;;;;3.86;58.95;97660.44;5042636;28;20065;-56
2022/03/01 11:24:00;;;;;;;12.63;5.70;;;;;;;4.23;58.59;97649.06;5043302;28;20063;-59
2022/03/01 11:26:36;;;;;;;10.90;5.32;;;;;;;4.57;58.35;97665.66;5042744;28;20467;-56
2022/03/01 11:29:08;;;;;;;5.00;3.25;;;;;;;4.01;58.98;97651.84;5048737;28;20058;-56
2022/03/01 11:31:36;;;;;;;11.80;5.67;;;;;;;4.50;58.20;97640.59;5061804;28;20068;-58
2022/03/01 11:34:14;;;;;;;10.80;5.18;;;;;;;4.40;57.91;97632.69;5062974;28;20062;-56
2022/03/01 11:36:52;;;;;;;12.10;6.70;;;;;;;4.58;57.88;97653.56;5061819;28;20102;-57
2022/03/01 11:39:30;;;;;;;11.57;4.93;;;;;;;4.77;57.01;97642.34;5061240;28;20048;-59